Have you ever worn a shirt? Buy one here!

Airports


Current ATIS/METAR

CYWG 222200Z 02010KT 15SM BKN031 BKN065 BKN250 15/08 A2971 RMK CU5SC2CI1 CI TR SLP067 DENSITY ALT 1300FT

  • Tower/Terminal at Winnipeg International (CYWG) is open 24/7.
  • Tower St. Andrews (CYAV) is open daily from 1300Z - 0400Z.

  • Scenery

    NEW Payware FSimStudios - For MSFS

    If you asked what sim developer creates the most consistently high-quality product, most people would say FSimStudios! The team based in Vancouver announced their release of Winnipeg, just in time for CTP East 2023..

    Now Available

    Payware SimAddons - For FSX, P3Dv4, v5 & MSFS

    SimAddons truly is a legend in creating scenery for Canadian airports, and the Winnipeg FIR has quite a lot of scenery from the team across the pond. Their scenery for Winnipeg isn't brand new, but is still the best available for P3D and MSFS as of late 2020.

    View More

    Freeware Orbx - for FSX & P3D

    ORBX is some of the best in the business at creating scenery, and Winnipeg is one of those airports available in their freeware pack. Get it now for your sim and upgrade Winnipeg for no cost.

    View More

    Freeware ProjectSierra - for P3D v4/v5

    P3D user who's looking for some good freeware? ProjectSierra has updated a scenery for the sim, and is available at no cost - pick it up and enjoy!.

    View More

    Current ATIS/METAR

    CYPG 222200Z 35011G18KT 15SM FEW032 FEW090 SCT250 BKN270 16/08 A2974 RMK CU1AC1CC2CI2 DENSITY ALT 1600FT TCU ASOCTD SH DIST SW SLP075

  • Tower open Mon - Fri from 1400Z - 2300Z, excluding holidays.

  • Scenery

    Freeware Orbx - for FSX & P3D

    ORBX is some of the best in the business at creating scenery, and CYPG is one of many airports included in their free Global Airport Pack. Snag it now and get an enhanced experience at Southport.

    View More

    Current ATIS/METAR

    CYXE 222200Z 05014KT 15SM BKN032 OVC040 10/04 A2988 RMK SC7SC1 SLP138

  • Tower open Mon - Fri between March 9th - October 31st, from 1200Z - 0445Z.
  • Tower open Sat - Sun between March 9th - October 31st, from 1245Z - 0445Z.
  • Tower open between November 1st - March 8th, from 1245Z - 0445Z.

  • Scenery

    Payware SimAddons - For FSX, P3Dv4, v5 & MSFS

    SimAddons, as usual, is all over Canada scenery for FSX, P3D and MSFS. No different in Saskatoon - their scenery for CYXE is great and models the airport perfectly for any pilot.

    View More

    Payware FSXCenery - For FSX & P3Dv5

    With their unique terminal shape and classic General Aviation ramp, Saskatoon is welcoming to both major airlines and small private pilots. FSXCenery brings the airport to life with their scenery.

    View More

    Freeware Orbx - for FSX & P3D

    ORBX is some of the best in the business at creating scenery. Like most airports, CYXE is covered in their freeware pack. Pick it up for zero dollars and upgrade your sim.

    View More

    Current ATIS/METAR

    CYQT 222228Z 29017G23KT 250V320 20SM -SHRA SCT024 OVC065 09/05 A2943 WS RWY25 RMK SC4SC4 CVCTV CLD EMBD SLP972

  • Tower open daily from 1200Z - 0400Z.

  • Scenery

    NEW Payware MFSG - for MSFS, P3Dv3+, FSX, FS2004

    It's not easy to find a developer who covers a handful of simulators - but that's what MFSG did with their wonderful Thunder Bay scenery! Check out their rendition, featuring the most updated airport layout of any CYQT options.

    View More

    Payware SimAddons - For FSX, P3Dv4, v5 & MSFS

    SimAddons is here with Thunder Bay too, of course - they've had this out for some time, but the scenery still matches with the current setup in CYQT.

    View More

    Payware FSXCenery - For MSFS

    FSXCenery just recently published their CYQT for MSFS package, and it looks outstanding - the terminal, the parking area, the small aprons scattered across the airport - they did it all.

    View More

    Payware FSXCenery - For FSX & P3D

    It isn't quite up to their MFSF standards, but FSXCenery certainly did a great job modeling Thunder Bay for this FSX/P3D scenery. Pick it up for a low cost and get flying!

    View More

    Freeware Orbx - for FSX & P3D

    ORBX is some of the best in the business at creating scenery. Thunder Bay is just another one on their list for the team - and at no cost, it's worth grabbing if you want to up your game.

    View More

    Freeware Jim Kanold - For XP11+

    Hiding on the eastern side of Winnipeg's airspace, this small city in Ontario is home to a major hub for small airlines and private pilots. This free scenery will update XP11 to give it the unique terminal, among other things..

    View More

    Current ATIS/METAR

    CYQR 222200Z 02009KT 15SM BKN044 14/04 A2977 RMK CU5 SLP101 DENSITY ALT 2400FT

  • Tower open between April 1st - October 31st, from 1200Z - 0400Z.
  • Tower open between November 1st - March 31st, from 1200Z - 0500Z.

  • Scenery

    Payware FSXCenery - For FSX & P3D

    FSXCenery has Regina on lock for FSX and P3D - their scenery just released for the simulators models the airport great - and is a fantastic addition to any simulator for central Canada flying.

    View More

    Freeware Canada4XPlane - For XP10 & XP11+

    If you're a private pilot, flying to Regina with this scenery from C4XP is a MUST. Their modeling of everything from the terminal to the Regina Flying Club is just extremely detailed - and it's free.

    View More

    Freeware Orbx - for FSX & P3D

    ORBX is some of the best in the business at creating scenery. You shouldn't be shocked that CYQR is covered in their freeware pack - it's free, it's a nice upgrade. Go get it today.

    View More

    Current ATIS/METAR

    CYMJ 222200Z 35010G15KT 15SM SCT042 BKN060 14/04 A2978 RMK CU4CU3 DENSITY ALT 2532FT SLP098

  • Tower/Terminal open between February 16st - October 31st, from 1400Z - 0030Z.
  • Tower/Terminal open between November 1st - Februaty 15th, from 1430Z - 0100Z.
  • Tower/Terminal also frequenty closed on weekends.

  • Scenery

    Freeware Orbx - for FSX & P3D

    ORBX is some of the best in the business at creating scenery. Moose Jaw is limited for scenery - but they've got ORBX on their side with their freeware pack - and it's a worthwile download.

    View More